Chisago Lake, Minnesota
Current Conditions -  °F | °C
As of 8:15 AM on Monday 22 Dec 2014 (Local Time) from KOEO Reporting Station
Haze Haze  
Wind Chill: 29°   Ceiling: 500
Heat Index: 36°   Visibility: 4mi
Dew Point: 36°   Wind: 9mph
Humidity: 100%   Direction: 130°SE
Pressure: 29.72"   Gusts: 17mph
Location:  45.4307°N, 92.7947°W
Report Text: KOEO 221415Z AUTO 13008G15KT 4SM BR OVC005 02/02 A2972 RMK AO2 T00230023
Loading
Personal Weather Stations






























Interactive Weather Map New forecast layout! Learn more

10-Day Weather Forecast

Advertisements
Track Severe Weather on mobile